sensor_id;sensor_type;location;lat;lon;timestamp;pressure;altitude;pressure_sealevel;temperature;humidity
64544;BME280;50936;51.660;5.616;2024-03-23T00:55:48;100701.25;;;10.68;89.17
64544;BME280;50936;51.660;5.616;2024-03-23T00:58:34;100689.81;;;10.52;89.53
64544;BME280;50936;51.660;5.616;2024-03-23T01:01:20;100690.22;;;10.58;90.39
64544;BME280;50936;51.660;5.616;2024-03-23T01:04:07;100687.41;;;10.60;90.89
64544;BME280;50936;51.660;5.616;2024-03-23T01:06:53;100692.06;;;10.58;90.40
64544;BME280;50936;51.660;5.616;2024-03-23T01:09:39;100687.66;;;10.57;90.58
64544;BME280;50936;51.660;5.616;2024-03-23T01:12:25;100687.75;;;10.55;89.90
64544;BME280;50936;51.660;5.616;2024-03-23T01:15:11;100690.22;;;10.46;89.79
64544;BME280;50936;51.660;5.616;2024-03-23T01:17:58;100682.38;;;10.43;89.88
64544;BME280;50936;51.660;5.616;2024-03-23T01:20:44;100698.03;;;10.37;89.96
64544;BME280;50936;51.660;5.616;2024-03-23T01:23:30;100680.72;;;10.27;90.13
64544;BME280;50936;51.660;5.616;2024-03-23T01:26:17;100676.41;;;10.25;90.48
64544;BME280;50936;51.660;5.616;2024-03-23T01:29:03;100672.31;;;10.19;90.28
64544;BME280;50936;51.660;5.616;2024-03-23T01:31:49;100663.66;;;10.14;90.42
64544;BME280;50936;51.660;5.616;2024-03-23T01:34:35;100671.97;;;10.11;91.07
64544;BME280;50936;51.660;5.616;2024-03-23T01:37:21;100667.56;;;10.10;91.66
64544;BME280;50936;51.660;5.616;2024-03-23T01:40:08;100642.06;;;10.01;91.57
64544;BME280;50936;51.660;5.616;2024-03-23T01:42:58;100658.91;;;10.05;91.93
64544;BME280;50936;51.660;5.616;2024-03-23T01:45:50;100639.94;;;9.93;91.84
64544;BME280;50936;51.660;5.616;2024-03-23T01:48:38;100646.81;;;9.97;92.57
64544;BME280;50936;51.660;5.616;2024-03-23T01:51:25;100642.63;;;9.93;92.89
64544;BME280;50936;51.660;5.616;2024-03-23T01:54:13;100647.47;;;9.88;93.18
64544;BME280;50936;51.660;5.616;2024-03-23T01:56:59;100643.38;;;9.82;93.42
64544;BME280;50936;51.660;5.616;2024-03-23T01:59:46;100644.22;;;9.83;93.78
64544;BME280;50936;51.660;5.616;2024-03-23T02:02:36;100643.16;;;9.73;94.40
64544;BME280;50936;51.660;5.616;2024-03-23T02:05:29;100625.34;;;9.70;94.60
64544;BME280;50936;51.660;5.616;2024-03-23T02:08:17;100637.53;;;9.76;95.00
64544;BME280;50936;51.660;5.616;2024-03-23T02:11:05;100619.63;;;9.75;95.23
64544;BME280;50936;51.660;5.616;2024-03-23T02:13:51;100629.53;;;9.87;95.31
64544;BME280;50936;51.660;5.616;2024-03-23T02:16:38;100628.78;;;9.85;95.63
64544;BME280;50936;51.660;5.616;2024-03-23T02:19:24;100624.78;;;9.91;95.82
64544;BME280;50936;51.660;5.616;2024-03-23T02:22:10;100630.09;;;9.92;95.99
64544;BME280;50936;51.660;5.616;2024-03-23T02:24:57;100629.13;;;9.80;95.97
64544;BME280;50936;51.660;5.616;2024-03-23T02:27:43;100635.06;;;9.86;96.57
64544;BME280;50936;51.660;5.616;2024-03-23T02:30:29;100615.31;;;9.85;96.64
64544;BME280;50936;51.660;5.616;2024-03-23T02:33:16;100611.22;;;9.92;96.52
64544;BME280;50936;51.660;5.616;2024-03-23T02:36:02;100612.59;;;9.98;96.66
64544;BME280;50936;51.660;5.616;2024-03-23T02:38:49;100617.69;;;10.02;96.29
64544;BME280;50936;51.660;5.616;2024-03-23T02:41:35;100615.00;;;10.02;96.52
64544;BME280;50936;51.660;5.616;2024-03-23T02:44:22;100624.78;;;10.03;96.20
64544;BME280;50936;51.660;5.616;2024-03-23T02:47:09;100625.34;;;10.09;96.16
64544;BME280;50936;51.660;5.616;2024-03-23T02:49:55;100614.66;;;10.07;95.61
64544;BME280;50936;51.660;5.616;2024-03-23T02:52:41;100619.41;;;10.03;95.39
64544;BME280;50936;51.660;5.616;2024-03-23T02:55:27;100624.59;;;10.07;95.09
64544;BME280;50936;51.660;5.616;2024-03-23T02:58:14;100615.53;;;10.08;95.36
64544;BME280;50936;51.660;5.616;2024-03-23T03:01:01;100613.16;;;10.03;95.55
64544;BME280;50936;51.660;5.616;2024-03-23T03:03:47;100609.91;;;10.11;95.03
64544;BME280;50936;51.660;5.616;2024-03-23T03:06:33;100617.88;;;10.12;94.86
64544;BME280;50936;51.660;5.616;2024-03-23T03:09:19;100611.53;;;10.00;94.28
64544;BME280;50936;51.660;5.616;2024-03-23T03:12:07;100627.38;;;10.05;94.98
64544;BME280;50936;51.660;5.616;2024-03-23T03:14:54;100617.25;;;10.09;95.34
64544;BME280;50936;51.660;5.616;2024-03-23T03:17:40;100624.16;;;10.13;94.97
64544;BME280;50936;51.660;5.616;2024-03-23T03:20:26;100618.00;;;10.11;94.84
64544;BME280;50936;51.660;5.616;2024-03-23T03:23:12;100620.47;;;10.14;94.40
64544;BME280;50936;51.660;5.616;2024-03-23T03:25:58;100624.16;;;10.13;93.74
64544;BME280;50936;51.660;5.616;2024-03-23T03:28:44;100628.47;;;10.02;93.49
64544;BME280;50936;51.660;5.616;2024-03-23T03:31:34;100614.66;;;9.94;93.89
64544;BME280;50936;51.660;5.616;2024-03-23T03:34:20;100623.94;;;10.03;94.14
64544;BME280;50936;51.660;5.616;2024-03-23T03:37:07;100615.84;;;10.03;93.87
64544;BME280;50936;51.660;5.616;2024-03-23T03:39:53;100614.00;;;10.03;93.09
64544;BME280;50936;51.660;5.616;2024-03-23T03:42:39;100594.81;;;9.95;92.77
64544;BME280;50936;51.660;5.616;2024-03-23T03:45:25;100600.00;;;9.98;92.79
64544;BME280;50936;51.660;5.616;2024-03-23T03:48:11;100596.31;;;9.87;92.44
64544;BME280;50936;51.660;5.616;2024-03-23T03:50:58;100599.78;;;9.89;92.80
64544;BME280;50936;51.660;5.616;2024-03-23T03:53:44;100605.41;;;9.86;93.11
64544;BME280;50936;51.660;5.616;2024-03-23T03:56:31;100610.78;;;9.86;92.79
64544;BME280;50936;51.660;5.616;2024-03-23T03:59:17;100596.75;;;9.80;92.24
64544;BME280;50936;51.660;5.616;2024-03-23T04:02:04;100599.75;;;9.76;92.26
64544;BME280;50936;51.660;5.616;2024-03-23T04:04:50;100602.56;;;9.74;92.09
64544;BME280;50936;51.660;5.616;2024-03-23T04:07:36;100606.03;;;9.63;92.15
64544;BME280;50936;51.660;5.616;2024-03-23T04:10:22;100604.28;;;9.62;92.35
64544;BME280;50936;51.660;5.616;2024-03-23T04:13:08;100600.00;;;9.60;92.33
64544;BME280;50936;51.660;5.616;2024-03-23T04:15:55;100604.72;;;9.56;92.30
64544;BME280;50936;51.660;5.616;2024-03-23T04:18:42;100598.03;;;9.49;92.10
64544;BME280;50936;51.660;5.616;2024-03-23T04:21:28;100602.13;;;9.42;92.26
64544;BME280;50936;51.660;5.616;2024-03-23T04:24:15;100587.53;;;9.32;92.35
64544;BME280;50936;51.660;5.616;2024-03-23T04:27:01;100601.00;;;9.32;92.10
64544;BME280;50936;51.660;5.616;2024-03-23T04:29:48;100600.88;;;9.20;92.14
64544;BME280;50936;51.660;5.616;2024-03-23T04:32:35;100595.34;;;9.09;92.10
64544;BME280;50936;51.660;5.616;2024-03-23T04:35:21;100599.22;;;9.05;92.57
64544;BME280;50936;51.660;5.616;2024-03-23T04:38:10;100595.97;;;9.00;92.75
64544;BME280;50936;51.660;5.616;2024-03-23T04:40:57;100606.56;;;9.03;92.73
64544;BME280;50936;51.660;5.616;2024-03-23T04:43:45;100603.28;;;8.98;92.39
64544;BME280;50936;51.660;5.616;2024-03-23T04:46:31;100594.22;;;8.99;91.97
64544;BME280;50936;51.660;5.616;2024-03-23T04:49:19;100595.50;;;8.93;92.36
64544;BME280;50936;51.660;5.616;2024-03-23T04:52:05;100592.91;;;8.92;92.43
64544;BME280;50936;51.660;5.616;2024-03-23T04:54:52;100594.84;;;8.90;92.35
64544;BME280;50936;51.660;5.616;2024-03-23T04:57:38;100595.94;;;8.87;92.49
64544;BME280;50936;51.660;5.616;2024-03-23T05:00:25;100600.66;;;8.83;92.21
64544;BME280;50936;51.660;5.616;2024-03-23T05:03:12;100581.75;;;8.71;92.71
64544;BME280;50936;51.660;5.616;2024-03-23T05:05:58;100583.34;;;8.73;92.75
64544;BME280;50936;51.660;5.616;2024-03-23T05:08:44;100589.91;;;8.69;92.70
64544;BME280;50936;51.660;5.616;2024-03-23T05:11:32;100593.03;;;8.63;92.67
64544;BME280;50936;51.660;5.616;2024-03-23T05:14:19;100584.38;;;8.58;92.96
64544;BME280;50936;51.660;5.616;2024-03-23T05:17:05;100580.94;;;8.56;93.20
64544;BME280;50936;51.660;5.616;2024-03-23T05:19:51;100581.53;;;8.46;93.08
64544;BME280;50936;51.660;5.616;2024-03-23T05:22:39;100579.41;;;8.37;93.66
64544;BME280;50936;51.660;5.616;2024-03-23T05:25:25;100580.53;;;8.33;93.69
64544;BME280;50936;51.660;5.616;2024-03-23T05:28:12;100585.72;;;8.36;93.76
64544;BME280;50936;51.660;5.616;2024-03-23T05:30:58;100577.97;;;8.32;94.16
64544;BME280;50936;51.660;5.616;2024-03-23T05:33:45;100584.22;;;8.32;94.34
64544;BME280;50936;51.660;5.616;2024-03-23T05:36:34;100587.94;;;8.29;94.40
64544;BME280;50936;51.660;5.616;2024-03-23T05:39:20;100576.81;;;8.21;94.64
64544;BME280;50936;51.660;5.616;2024-03-23T05:42:08;100579.09;;;8.27;94.63
64544;BME280;50936;51.660;5.616;2024-03-23T05:44:54;100573.06;;;8.24;94.42
64544;BME280;50936;51.660;5.616;2024-03-23T05:47:40;100587.19;;;8.27;94.75
64544;BME280;50936;51.660;5.616;2024-03-23T05:50:27;100585.56;;;8.25;94.80
64544;BME280;50936;51.660;5.616;2024-03-23T05:53:14;100592.66;;;8.26;94.70
64544;BME280;50936;51.660;5.616;2024-03-23T05:56:03;100583.63;;;8.27;94.79
64544;BME280;50936;51.660;5.616;2024-03-23T05:58:50;100597.00;;;8.43;94.13
64544;BME280;50936;51.660;5.616;2024-03-23T06:01:36;100594.22;;;8.44;93.89
64544;BME280;50936;51.660;5.616;2024-03-23T06:04:22;100599.19;;;8.51;93.81
64544;BME280;50936;51.660;5.616;2024-03-23T06:07:08;100594.47;;;8.54;93.76
64544;BME280;50936;51.660;5.616;2024-03-23T06:09:59;100594.72;;;8.64;93.57
64544;BME280;50936;51.660;5.616;2024-03-23T06:12:46;100599.94;;;8.67;92.95
64544;BME280;50936;51.660;5.616;2024-03-23T06:15:32;100598.00;;;8.69;92.81
64544;BME280;50936;51.660;5.616;2024-03-23T06:18:22;100597.38;;;8.78;92.88
64544;BME280;50936;51.660;5.616;2024-03-23T06:21:13;100594.19;;;8.86;92.67
64544;BME280;50936;51.660;5.616;2024-03-23T06:24:00;100593.78;;;8.92;92.28
64544;BME280;50936;51.660;5.616;2024-03-23T06:26:46;100600.28;;;9.02;91.43
64544;BME280;50936;51.660;5.616;2024-03-23T06:29:32;100593.13;;;8.89;90.96
64544;BME280;50936;51.660;5.616;2024-03-23T06:32:18;100595.31;;;8.96;91.56
64544;BME280;50936;51.660;5.616;2024-03-23T06:35:05;100601.16;;;9.03;91.88
64544;BME280;50936;51.660;5.616;2024-03-23T06:37:55;100604.53;;;9.19;91.61
64544;BME280;50936;51.660;5.616;2024-03-23T06:40:41;100602.66;;;9.34;90.37
64544;BME280;50936;51.660;5.616;2024-03-23T06:43:27;100605.13;;;9.50;89.40
64544;BME280;50936;51.660;5.616;2024-03-23T06:46:14;100613.78;;;9.55;88.45
64544;BME280;50936;51.660;5.616;2024-03-23T06:49:00;100611.19;;;9.67;88.81
64544;BME280;50936;51.660;5.616;2024-03-23T06:51:46;100605.41;;;9.73;87.53
64544;BME280;50936;51.660;5.616;2024-03-23T06:54:33;100611.00;;;9.70;87.60
64544;BME280;50936;51.660;5.616;2024-03-23T06:57:19;100608.72;;;9.63;87.14
64544;BME280;50936;51.660;5.616;2024-03-23T07:00:05;100603.75;;;9.57;86.70
64544;BME280;50936;51.660;5.616;2024-03-23T07:02:55;100599.19;;;9.45;87.54
64544;BME280;50936;51.660;5.616;2024-03-23T07:05:42;100610.53;;;9.50;87.56
64544;BME280;50936;51.660;5.616;2024-03-23T07:08:28;100609.03;;;9.59;88.12
64544;BME280;50936;51.660;5.616;2024-03-23T07:11:21;100605.59;;;9.95;86.84
64544;BME280;50936;51.660;5.616;2024-03-23T07:14:08;100603.44;;;10.13;85.48
64544;BME280;50936;51.660;5.616;2024-03-23T07:16:55;100595.25;;;10.15;84.08
64544;BME280;50936;51.660;5.616;2024-03-23T07:19:41;100596.72;;;10.45;85.53
64544;BME280;50936;51.660;5.616;2024-03-23T07:22:27;100612.38;;;10.76;82.83
64544;BME280;50936;51.660;5.616;2024-03-23T07:25:13;100600.19;;;10.95;82.29
64544;BME280;50936;51.660;5.616;2024-03-23T07:28:01;100611.59;;;11.11;80.83
64544;BME280;50936;51.660;5.616;2024-03-23T07:30:47;100603.44;;;11.00;78.53
64544;BME280;50936;51.660;5.616;2024-03-23T07:33:36;100594.63;;;10.85;79.40
64544;BME280;50936;51.660;5.616;2024-03-23T07:36:23;100608.03;;;10.87;76.70
64544;BME280;50936;51.660;5.616;2024-03-23T07:39:09;100601.19;;;10.70;77.00
64544;BME280;50936;51.660;5.616;2024-03-23T07:41:55;100608.66;;;10.66;77.59
64544;BME280;50936;51.660;5.616;2024-03-23T07:44:42;100602.25;;;10.67;77.66
64544;BME280;50936;51.660;5.616;2024-03-23T07:47:28;100608.47;;;11.29;77.55
64544;BME280;50936;51.660;5.616;2024-03-23T07:50:14;100612.63;;;11.92;74.57
64544;BME280;50936;51.660;5.616;2024-03-23T07:53:01;100605.25;;;11.94;74.10
64544;BME280;50936;51.660;5.616;2024-03-23T07:55:58;100615.34;;;11.68;73.22
64544;BME280;50936;51.660;5.616;2024-03-23T07:58:45;100606.28;;;11.34;74.15
64544;BME280;50936;51.660;5.616;2024-03-23T08:01:32;100599.75;;;11.01;76.23
64544;BME280;50936;51.660;5.616;2024-03-23T08:04:18;100606.25;;;10.98;78.09
64544;BME280;50936;51.660;5.616;2024-03-23T08:07:05;100602.78;;;10.96;78.02
64544;BME280;50936;51.660;5.616;2024-03-23T08:09:51;100602.50;;;10.64;78.57
64544;BME280;50936;51.660;5.616;2024-03-23T08:12:37;100597.84;;;10.66;80.38
64544;BME280;50936;51.660;5.616;2024-03-23T08:15:23;100594.91;;;10.69;79.10
64544;BME280;50936;51.660;5.616;2024-03-23T08:18:11;100593.41;;;10.65;80.51
64544;BME280;50936;51.660;5.616;2024-03-23T08:21:01;100608.03;;;10.87;80.40
64544;BME280;50936;51.660;5.616;2024-03-23T08:23:49;100609.06;;;10.97;80.52
64544;BME280;50936;51.660;5.616;2024-03-23T08:26:36;100591.09;;;10.85;78.64
64544;BME280;50936;51.660;5.616;2024-03-23T08:29:23;100604.34;;;10.88;79.88
64544;BME280;50936;51.660;5.616;2024-03-23T08:32:09;100597.28;;;10.98;78.58
64544;BME280;50936;51.660;5.616;2024-03-23T08:34:56;100609.13;;;11.08;78.78
64544;BME280;50936;51.660;5.616;2024-03-23T08:37:42;100601.25;;;11.05;76.64
64544;BME280;50936;51.660;5.616;2024-03-23T08:40:28;100592.09;;;10.95;76.69
64544;BME280;50936;51.660;5.616;2024-03-23T08:43:14;100609.13;;;11.08;77.39
64544;BME280;50936;51.660;5.616;2024-03-23T08:46:11;100597.56;;;11.06;75.84
64544;BME280;50936;51.660;5.616;2024-03-23T08:48:59;100595.28;;;10.89;74.25
64544;BME280;50936;51.660;5.616;2024-03-23T08:51:45;100587.72;;;10.57;73.24
64544;BME280;50936;51.660;5.616;2024-03-23T08:54:31;100606.03;;;10.15;71.62
64544;BME280;50936;51.660;5.616;2024-03-23T08:57:17;100603.75;;;9.83;72.42
64544;BME280;50936;51.660;5.616;2024-03-23T09:00:04;100605.16;;;9.63;73.70
64544;BME280;50936;51.660;5.616;2024-03-23T09:02:51;100599.34;;;9.56;75.54
64544;BME280;50936;51.660;5.616;2024-03-23T09:05:39;100616.91;;;9.49;78.13
64544;BME280;50936;51.660;5.616;2024-03-23T09:08:25;100606.44;;;9.57;78.77
64544;BME280;50936;51.660;5.616;2024-03-23T09:11:13;100612.75;;;9.96;80.06
64544;BME280;50936;51.660;5.616;2024-03-23T09:13:59;100589.69;;;10.29;80.80
64544;BME280;50936;51.660;5.616;2024-03-23T09:16:46;100583.59;;;10.64;78.33
64544;BME280;50936;51.660;5.616;2024-03-23T09:19:32;100602.41;;;10.90;79.44
64544;BME280;50936;51.660;5.616;2024-03-23T09:22:18;100584.25;;;10.92;76.07
64544;BME280;50936;51.660;5.616;2024-03-23T09:25:04;100596.53;;;10.96;73.75
64544;BME280;50936;51.660;5.616;2024-03-23T09:27:51;100588.13;;;10.88;74.15
64544;BME280;50936;51.660;5.616;2024-03-23T09:30:37;100594.00;;;10.82;74.59
64544;BME280;50936;51.660;5.616;2024-03-23T09:33:29;100582.44;;;10.55;74.93
64544;BME280;50936;51.660;5.616;2024-03-23T09:36:16;100586.34;;;10.38;74.98
64544;BME280;50936;51.660;5.616;2024-03-23T09:39:02;100582.03;;;10.23;74.48
64544;BME280;50936;51.660;5.616;2024-03-23T09:41:49;100573.66;;;10.15;75.89
64544;BME280;50936;51.660;5.616;2024-03-23T09:44:36;100567.59;;;10.24;75.13
64544;BME280;50936;51.660;5.616;2024-03-23T09:47:23;100565.53;;;10.40;76.55
64544;BME280;50936;51.660;5.616;2024-03-23T09:50:10;100558.81;;;10.46;75.62
64544;BME280;50936;51.660;5.616;2024-03-23T09:52:57;100564.59;;;10.53;76.54
64544;BME280;50936;51.660;5.616;2024-03-23T09:55:44;100567.09;;;10.56;74.71
64544;BME280;50936;51.660;5.616;2024-03-23T09:58:30;100571.97;;;10.75;75.49
64544;BME280;50936;51.660;5.616;2024-03-23T10:01:18;100569.75;;;10.93;73.59
64544;BME280;50936;51.660;5.616;2024-03-23T10:04:05;100543.56;;;11.17;66.72
64544;BME280;50936;51.660;5.616;2024-03-23T10:06:51;100566.50;;;11.47;66.32
64544;BME280;50936;51.660;5.616;2024-03-23T10:09:37;100567.47;;;11.46;63.30
64544;BME280;50936;51.660;5.616;2024-03-23T10:12:24;100565.38;;;11.39;63.28
64544;BME280;50936;51.660;5.616;2024-03-23T10:15:20;100562.69;;;11.50;60.17
64544;BME280;50936;51.660;5.616;2024-03-23T10:18:20;100569.25;;;11.70;61.31
64544;BME280;50936;51.660;5.616;2024-03-23T10:21:09;100566.50;;;12.17;59.96
64544;BME280;50936;51.660;5.616;2024-03-23T10:24:07;100570.66;;;12.87;57.49
64544;BME280;50936;51.660;5.616;2024-03-23T10:26:58;100572.66;;;13.17;53.37
64544;BME280;50936;51.660;5.616;2024-03-23T10:29:48;100561.72;;;13.61;56.21
64544;BME280;50936;51.660;5.616;2024-03-23T10:32:35;100563.84;;;13.57;51.13
64544;BME280;50936;51.660;5.616;2024-03-23T10:35:22;100565.31;;;13.29;50.58
64544;BME280;50936;51.660;5.616;2024-03-23T10:38:09;100576.59;;;12.81;51.38
64544;BME280;50936;51.660;5.616;2024-03-23T10:40:55;100577.63;;;12.68;56.14
64544;BME280;50936;51.660;5.616;2024-03-23T10:43:45;100566.69;;;12.59;54.58
64544;BME280;50936;51.660;5.616;2024-03-23T10:46:33;100576.91;;;12.55;55.32
64544;BME280;50936;51.660;5.616;2024-03-23T10:49:20;100570.28;;;12.48;55.18
64544;BME280;50936;51.660;5.616;2024-03-23T10:52:06;100561.31;;;12.25;53.82
64544;BME280;50936;51.660;5.616;2024-03-23T10:54:55;100566.06;;;12.55;53.97
64544;BME280;50936;51.660;5.616;2024-03-23T10:57:48;100558.69;;;12.57;53.47
64544;BME280;50936;51.660;5.616;2024-03-23T11:00:41;100563.13;;;12.47;54.27
64544;BME280;50936;51.660;5.616;2024-03-23T11:03:35;100562.25;;;13.01;54.88
64544;BME280;50936;51.660;5.616;2024-03-23T11:06:37;100563.75;;;13.47;51.29
64544;BME280;50936;51.660;5.616;2024-03-23T11:09:42;100568.53;;;13.34;50.83
64544;BME280;50936;51.660;5.616;2024-03-23T11:12:31;100574.47;;;13.28;51.07
64544;BME280;50936;51.660;5.616;2024-03-23T11:15:18;100577.41;;;13.78;51.10
64544;BME280;50936;51.660;5.616;2024-03-23T11:18:06;100572.56;;;14.13;50.39
64544;BME280;50936;51.660;5.616;2024-03-23T11:20:57;100582.34;;;13.73;50.81
64544;BME280;50936;51.660;5.616;2024-03-23T11:23:44;100588.13;;;12.94;54.67
64544;BME280;50936;51.660;5.616;2024-03-23T11:26:30;100599.28;;;11.89;55.82
64544;BME280;50936;51.660;5.616;2024-03-23T11:29:17;100588.56;;;11.30;60.17
64544;BME280;50936;51.660;5.616;2024-03-23T11:32:04;100576.41;;;11.00;63.30
64544;BME280;50936;51.660;5.616;2024-03-23T11:34:51;100571.75;;;10.78;64.30
64544;BME280;50936;51.660;5.616;2024-03-23T11:37:37;100569.63;;;10.70;66.13
64544;BME280;50936;51.660;5.616;2024-03-23T11:40:23;100571.63;;;10.55;66.14
64544;BME280;50936;51.660;5.616;2024-03-23T11:46:02;100571.06;;;11.47;66.02
64544;BME280;50936;51.660;5.616;2024-03-23T11:48:50;100569.09;;;12.18;63.09
64544;BME280;50936;51.660;5.616;2024-03-23T11:51:39;100558.13;;;12.75;62.50
64544;BME280;50936;51.660;5.616;2024-03-23T11:54:26;100572.97;;;13.24;60.50
64544;BME280;50936;51.660;5.616;2024-03-23T11:57:13;100576.75;;;13.65;62.42
64544;BME280;50936;51.660;5.616;2024-03-23T11:59:59;100570.53;;;13.32;56.77
64544;BME280;50936;51.660;5.616;2024-03-23T12:02:45;100583.31;;;12.43;58.48
64544;BME280;50936;51.660;5.616;2024-03-23T12:05:32;100566.63;;;11.92;62.23
64544;BME280;50936;51.660;5.616;2024-03-23T12:08:32;100556.94;;;11.66;63.34
64544;BME280;50936;51.660;5.616;2024-03-23T12:11:19;100566.22;;;11.39;64.84
64544;BME280;50936;51.660;5.616;2024-03-23T12:14:05;100545.84;;;11.46;66.83
64544;BME280;50936;51.660;5.616;2024-03-23T12:16:51;100539.25;;;11.84;66.99
64544;BME280;50936;51.660;5.616;2024-03-23T12:19:39;100542.25;;;12.15;67.04
64544;BME280;50936;51.660;5.616;2024-03-23T12:22:27;100539.94;;;12.65;69.93
64544;BME280;50936;51.660;5.616;2024-03-23T12:25:15;100529.53;;;12.82;65.03
64544;BME280;50936;51.660;5.616;2024-03-23T12:28:02;100536.69;;;12.83;64.37
64544;BME280;50936;51.660;5.616;2024-03-23T12:30:48;100517.72;;;12.39;59.07
64544;BME280;50936;51.660;5.616;2024-03-23T12:33:35;100515.91;;;12.06;57.56
64544;BME280;50936;51.660;5.616;2024-03-23T12:36:21;100530.16;;;11.85;58.63
64544;BME280;50936;51.660;5.616;2024-03-23T12:39:07;100524.13;;;11.70;59.76
64544;BME280;50936;51.660;5.616;2024-03-23T12:41:54;100546.91;;;11.21;62.37
64544;BME280;50936;51.660;5.616;2024-03-23T12:44:40;100537.84;;;10.50;64.28
64544;BME280;50936;51.660;5.616;2024-03-23T12:47:27;100546.13;;;10.10;68.48
64544;BME280;50936;51.660;5.616;2024-03-23T12:50:14;100541.31;;;9.89;71.12
64544;BME280;50936;51.660;5.616;2024-03-23T12:53:00;100539.34;;;9.91;72.64
64544;BME280;50936;51.660;5.616;2024-03-23T12:55:46;100544.97;;;9.88;72.81
64544;BME280;50936;51.660;5.616;2024-03-23T12:58:32;100531.03;;;9.94;74.55
64544;BME280;50936;51.660;5.616;2024-03-23T13:01:18;100536.53;;;10.06;75.41
64544;BME280;50936;51.660;5.616;2024-03-23T13:04:06;100530.06;;;10.69;73.01
64544;BME280;50936;51.660;5.616;2024-03-23T13:06:52;100541.81;;;10.57;70.74
64544;BME280;50936;51.660;5.616;2024-03-23T13:09:38;100539.94;;;10.33;71.99
64544;BME280;50936;51.660;5.616;2024-03-23T13:12:24;100552.34;;;10.23;70.87
64544;BME280;50936;51.660;5.616;2024-03-23T13:15:11;100552.50;;;9.83;73.03
64544;BME280;50936;51.660;5.616;2024-03-23T13:17:57;100554.91;;;9.62;75.04
64544;BME280;50936;51.660;5.616;2024-03-23T13:20:44;100552.53;;;9.57;76.07
64544;BME280;50936;51.660;5.616;2024-03-23T13:23:31;100534.63;;;9.56;75.25
64544;BME280;50936;51.660;5.616;2024-03-23T13:26:18;100545.81;;;9.76;75.66
64544;BME280;50936;51.660;5.616;2024-03-23T13:29:04;100541.13;;;10.66;74.52
64544;BME280;50936;51.660;5.616;2024-03-23T13:31:52;100541.50;;;11.90;70.64
64544;BME280;50936;51.660;5.616;2024-03-23T13:34:39;100552.41;;;12.89;64.78
64544;BME280;50936;51.660;5.616;2024-03-23T13:37:26;100545.88;;;13.66;63.77
64544;BME280;50936;51.660;5.616;2024-03-23T13:40:12;100546.16;;;14.24;61.24
64544;BME280;50936;51.660;5.616;2024-03-23T13:42:58;100551.59;;;13.94;57.42
64544;BME280;50936;51.660;5.616;2024-03-23T13:45:47;100535.72;;;13.37;59.72
64544;BME280;50936;51.660;5.616;2024-03-23T13:48:34;100518.25;;;12.65;58.50
64544;BME280;50936;51.660;5.616;2024-03-23T13:51:24;100519.72;;;12.03;63.43
64544;BME280;50936;51.660;5.616;2024-03-23T13:54:12;100495.97;;;11.62;65.22
64544;BME280;50936;51.660;5.616;2024-03-23T13:56:59;100510.94;;;11.54;65.63
64544;BME280;50936;51.660;5.616;2024-03-23T13:59:45;100511.69;;;11.68;65.75
64544;BME280;50936;51.660;5.616;2024-03-23T14:02:31;100509.97;;;12.35;63.43
64544;BME280;50936;51.660;5.616;2024-03-23T14:05:17;100507.41;;;12.77;60.69
64544;BME280;50936;51.660;5.616;2024-03-23T14:08:11;100506.38;;;12.78;60.36
64544;BME280;50936;51.660;5.616;2024-03-23T14:10:57;100501.53;;;12.49;60.28
64544;BME280;50936;51.660;5.616;2024-03-23T14:13:44;100491.28;;;12.20;61.18
64544;BME280;50936;51.660;5.616;2024-03-23T14:16:31;100502.13;;;11.98;62.81
64544;BME280;50936;51.660;5.616;2024-03-23T14:19:17;100481.00;;;11.91;63.85
64544;BME280;50936;51.660;5.616;2024-03-23T14:22:05;100484.16;;;12.19;64.74
64544;BME280;50936;51.660;5.616;2024-03-23T14:24:51;100475.84;;;12.76;64.52
64544;BME280;50936;51.660;5.616;2024-03-23T14:27:37;100484.38;;;13.24;60.70
64544;BME280;50936;51.660;5.616;2024-03-23T14:30:23;100481.19;;;13.40;58.60
64544;BME280;50936;51.660;5.616;2024-03-23T14:33:10;100471.00;;;13.12;56.92
64544;BME280;50936;51.660;5.616;2024-03-23T14:35:56;100480.06;;;12.68;58.17
64544;BME280;50936;51.660;5.616;2024-03-23T14:38:47;100474.97;;;12.43;59.35
64544;BME280;50936;51.660;5.616;2024-03-23T14:41:34;100475.31;;;12.06;60.83
64544;BME280;50936;51.660;5.616;2024-03-23T14:44:20;100465.97;;;11.99;61.75
64544;BME280;50936;51.660;5.616;2024-03-23T14:47:06;100475.56;;;11.91;62.71
64544;BME280;50936;51.660;5.616;2024-03-23T14:49:53;100470.38;;;12.22;62.18
64544;BME280;50936;51.660;5.616;2024-03-23T14:52:39;100460.25;;;12.89;59.51
64544;BME280;50936;51.660;5.616;2024-03-23T14:55:25;100464.72;;;12.90;59.67
64544;BME280;50936;51.660;5.616;2024-03-23T14:58:11;100471.28;;;12.76;60.03
64544;BME280;50936;51.660;5.616;2024-03-23T15:03:51;100469.13;;;12.26;60.75
64544;BME280;50936;51.660;5.616;2024-03-23T15:06:39;100457.34;;;11.71;57.84
64544;BME280;50936;51.660;5.616;2024-03-23T15:09:25;100470.00;;;11.36;61.61
64544;BME280;50936;51.660;5.616;2024-03-23T15:12:11;100486.41;;;10.75;63.82
64544;BME280;50936;51.660;5.616;2024-03-23T15:14:58;100461.72;;;10.45;63.59
64544;BME280;50936;51.660;5.616;2024-03-23T15:17:44;100481.31;;;10.23;63.52
64544;BME280;50936;51.660;5.616;2024-03-23T15:20:31;100483.81;;;10.13;64.11
64544;BME280;50936;51.660;5.616;2024-03-23T15:23:21;100470.03;;;10.05;63.41
64544;BME280;50936;51.660;5.616;2024-03-23T15:26:08;100465.22;;;9.97;64.58
64544;BME280;50936;51.660;5.616;2024-03-23T15:28:54;100467.06;;;9.96;64.95
64544;BME280;50936;51.660;5.616;2024-03-23T15:31:43;100460.78;;;9.96;65.17
64544;BME280;50936;51.660;5.616;2024-03-23T15:34:31;100473.72;;;9.91;66.39
64544;BME280;50936;51.660;5.616;2024-03-23T15:37:17;100474.72;;;9.90;67.21